sensor_id;sensor_type;location;lat;lon;timestamp;P1;durP1;ratioP1;P2;durP2;ratioP2
14040;SDS011;7095;51.388;6.196;2023-03-18T00:00:11;15.07;;;4.73;;
14040;SDS011;7095;51.388;6.196;2023-03-18T00:02:42;13.80;;;5.17;;
14040;SDS011;7095;51.388;6.196;2023-03-18T00:05:13;10.40;;;5.30;;
14040;SDS011;7095;51.388;6.196;2023-03-18T00:07:42;16.33;;;5.80;;
14040;SDS011;7095;51.388;6.196;2023-03-18T00:10:11;12.20;;;5.33;;
14040;SDS011;7095;51.388;6.196;2023-03-18T00:12:39;12.67;;;5.17;;
14040;SDS011;7095;51.388;6.196;2023-03-18T00:15:10;12.70;;;5.23;;
14040;SDS011;7095;51.388;6.196;2023-03-18T00:17:42;13.67;;;6.47;;
14040;SDS011;7095;51.388;6.196;2023-03-18T00:20:11;10.73;;;4.97;;
14040;SDS011;7095;51.388;6.196;2023-03-18T00:22:44;14.37;;;5.50;;
14040;SDS011;7095;51.388;6.196;2023-03-18T00:25:13;15.77;;;5.57;;
14040;SDS011;7095;51.388;6.196;2023-03-18T00:27:42;10.03;;;4.80;;
14040;SDS011;7095;51.388;6.196;2023-03-18T00:30:10;8.73;;;4.67;;
14040;SDS011;7095;51.388;6.196;2023-03-18T00:32:40;11.37;;;5.53;;
14040;SDS011;7095;51.388;6.196;2023-03-18T00:35:08;10.63;;;5.47;;
14040;SDS011;7095;51.388;6.196;2023-03-18T00:37:39;12.90;;;5.70;;
14040;SDS011;7095;51.388;6.196;2023-03-18T00:40:09;9.90;;;5.30;;
14040;SDS011;7095;51.388;6.196;2023-03-18T00:42:43;11.10;;;5.27;;
14040;SDS011;7095;51.388;6.196;2023-03-18T00:45:16;9.00;;;5.23;;
14040;SDS011;7095;51.388;6.196;2023-03-18T00:47:46;10.33;;;5.63;;
14040;SDS011;7095;51.388;6.196;2023-03-18T00:50:16;10.53;;;5.20;;
14040;SDS011;7095;51.388;6.196;2023-03-18T00:52:46;10.67;;;5.63;;
14040;SDS011;7095;51.388;6.196;2023-03-18T00:55:15;11.13;;;5.77;;
14040;SDS011;7095;51.388;6.196;2023-03-18T00:57:43;10.10;;;5.40;;
14040;SDS011;7095;51.388;6.196;2023-03-18T01:00:12;12.00;;;5.80;;
14040;SDS011;7095;51.388;6.196;2023-03-18T01:02:42;12.63;;;5.40;;
14040;SDS011;7095;51.388;6.196;2023-03-18T01:05:11;12.87;;;5.27;;
14040;SDS011;7095;51.388;6.196;2023-03-18T01:07:40;11.47;;;5.90;;
14040;SDS011;7095;51.388;6.196;2023-03-18T01:10:11;8.93;;;5.70;;
14040;SDS011;7095;51.388;6.196;2023-03-18T01:12:41;10.03;;;5.50;;
14040;SDS011;7095;51.388;6.196;2023-03-18T01:15:13;14.97;;;5.83;;
14040;SDS011;7095;51.388;6.196;2023-03-18T01:17:46;12.27;;;6.70;;
14040;SDS011;7095;51.388;6.196;2023-03-18T01:20:17;20.13;;;6.97;;
14040;SDS011;7095;51.388;6.196;2023-03-18T01:22:50;12.50;;;6.40;;
14040;SDS011;7095;51.388;6.196;2023-03-18T01:25:20;14.77;;;6.90;;
14040;SDS011;7095;51.388;6.196;2023-03-18T01:27:52;14.70;;;6.00;;
14040;SDS011;7095;51.388;6.196;2023-03-18T01:30:20;17.87;;;6.90;;
14040;SDS011;7095;51.388;6.196;2023-03-18T01:32:52;14.40;;;6.50;;
14040;SDS011;7095;51.388;6.196;2023-03-18T01:35:21;16.20;;;8.90;;
14040;SDS011;7095;51.388;6.196;2023-03-18T01:37:51;21.50;;;8.30;;
14040;SDS011;7095;51.388;6.196;2023-03-18T01:40:21;13.07;;;7.87;;
14040;SDS011;7095;51.388;6.196;2023-03-18T01:42:53;15.50;;;8.33;;
14040;SDS011;7095;51.388;6.196;2023-03-18T01:45:27;14.80;;;7.57;;
14040;SDS011;7095;51.388;6.196;2023-03-18T01:47:59;18.23;;;8.63;;
14040;SDS011;7095;51.388;6.196;2023-03-18T01:50:29;16.43;;;8.57;;
14040;SDS011;7095;51.388;6.196;2023-03-18T01:53:00;17.77;;;8.83;;
14040;SDS011;7095;51.388;6.196;2023-03-18T01:55:34;13.73;;;8.63;;
14040;SDS011;7095;51.388;6.196;2023-03-18T01:58:05;18.67;;;8.30;;
14040;SDS011;7095;51.388;6.196;2023-03-18T02:00:38;13.83;;;8.73;;
14040;SDS011;7095;51.388;6.196;2023-03-18T02:03:10;16.30;;;8.83;;
14040;SDS011;7095;51.388;6.196;2023-03-18T02:05:39;15.57;;;9.47;;
14040;SDS011;7095;51.388;6.196;2023-03-18T02:08:10;17.37;;;9.53;;
14040;SDS011;7095;51.388;6.196;2023-03-18T02:10:40;21.77;;;10.17;;
14040;SDS011;7095;51.388;6.196;2023-03-18T02:13:11;20.23;;;9.63;;
14040;SDS011;7095;51.388;6.196;2023-03-18T02:15:45;19.77;;;9.90;;
14040;SDS011;7095;51.388;6.196;2023-03-18T02:18:20;18.43;;;9.23;;
14040;SDS011;7095;51.388;6.196;2023-03-18T02:20:59;20.43;;;10.13;;
14040;SDS011;7095;51.388;6.196;2023-03-18T02:23:41;16.53;;;10.27;;
14040;SDS011;7095;51.388;6.196;2023-03-18T02:26:31;18.60;;;11.27;;
14040;SDS011;7095;51.388;6.196;2023-03-18T02:29:12;18.97;;;11.37;;
14040;SDS011;7095;51.388;6.196;2023-03-18T02:31:51;18.50;;;11.07;;
14040;SDS011;7095;51.388;6.196;2023-03-18T02:34:22;18.00;;;11.47;;
14040;SDS011;7095;51.388;6.196;2023-03-18T02:36:54;20.93;;;12.10;;
14040;SDS011;7095;51.388;6.196;2023-03-18T02:39:23;21.70;;;11.83;;
14040;SDS011;7095;51.388;6.196;2023-03-18T02:41:55;23.63;;;11.33;;
14040;SDS011;7095;51.388;6.196;2023-03-18T02:44:25;22.47;;;11.80;;
14040;SDS011;7095;51.388;6.196;2023-03-18T02:47:17;17.53;;;10.53;;
14040;SDS011;7095;51.388;6.196;2023-03-18T02:49:48;24.23;;;12.47;;
14040;SDS011;7095;51.388;6.196;2023-03-18T02:52:18;17.57;;;10.00;;
14040;SDS011;7095;51.388;6.196;2023-03-18T02:54:47;19.53;;;11.23;;
14040;SDS011;7095;51.388;6.196;2023-03-18T02:57:15;22.73;;;11.23;;
14040;SDS011;7095;51.388;6.196;2023-03-18T02:59:47;21.80;;;11.93;;
14040;SDS011;7095;51.388;6.196;2023-03-18T03:02:15;23.77;;;11.53;;
14040;SDS011;7095;51.388;6.196;2023-03-18T03:04:44;20.93;;;11.80;;
14040;SDS011;7095;51.388;6.196;2023-03-18T03:07:15;24.33;;;12.73;;
14040;SDS011;7095;51.388;6.196;2023-03-18T03:09:49;22.53;;;13.10;;
14040;SDS011;7095;51.388;6.196;2023-03-18T03:12:18;19.97;;;12.10;;
14040;SDS011;7095;51.388;6.196;2023-03-18T03:14:53;25.93;;;16.00;;
14040;SDS011;7095;51.388;6.196;2023-03-18T03:17:24;27.50;;;17.17;;
14040;SDS011;7095;51.388;6.196;2023-03-18T03:19:53;31.20;;;21.03;;
14040;SDS011;7095;51.388;6.196;2023-03-18T03:22:22;31.80;;;20.70;;
14040;SDS011;7095;51.388;6.196;2023-03-18T03:24:50;32.57;;;21.77;;
14040;SDS011;7095;51.388;6.196;2023-03-18T03:27:19;37.93;;;24.97;;
14040;SDS011;7095;51.388;6.196;2023-03-18T03:29:47;33.43;;;22.80;;
14040;SDS011;7095;51.388;6.196;2023-03-18T03:32:19;55.00;;;30.90;;
14040;SDS011;7095;51.388;6.196;2023-03-18T03:34:48;46.70;;;30.20;;
14040;SDS011;7095;51.388;6.196;2023-03-18T03:37:17;49.77;;;31.43;;
14040;SDS011;7095;51.388;6.196;2023-03-18T03:39:45;48.70;;;33.47;;
14040;SDS011;7095;51.388;6.196;2023-03-18T03:42:14;50.83;;;32.70;;
14040;SDS011;7095;51.388;6.196;2023-03-18T03:44:43;50.40;;;32.00;;
14040;SDS011;7095;51.388;6.196;2023-03-18T03:47:11;45.50;;;32.90;;
14040;SDS011;7095;51.388;6.196;2023-03-18T03:49:41;54.33;;;33.67;;
14040;SDS011;7095;51.388;6.196;2023-03-18T03:52:10;48.77;;;32.87;;
14040;SDS011;7095;51.388;6.196;2023-03-18T03:54:41;49.43;;;34.50;;
14040;SDS011;7095;51.388;6.196;2023-03-18T03:57:09;55.50;;;35.93;;
14040;SDS011;7095;51.388;6.196;2023-03-18T03:59:38;50.57;;;32.87;;
14040;SDS011;7095;51.388;6.196;2023-03-18T04:02:19;51.97;;;31.60;;
14040;SDS011;7095;51.388;6.196;2023-03-18T04:04:51;44.90;;;30.03;;
14040;SDS011;7095;51.388;6.196;2023-03-18T04:07:24;48.60;;;30.53;;
14040;SDS011;7095;51.388;6.196;2023-03-18T04:09:53;40.73;;;27.27;;
14040;SDS011;7095;51.388;6.196;2023-03-18T04:12:22;38.50;;;24.23;;
14040;SDS011;7095;51.388;6.196;2023-03-18T04:14:56;35.23;;;23.83;;
14040;SDS011;7095;51.388;6.196;2023-03-18T04:17:25;40.77;;;24.27;;
14040;SDS011;7095;51.388;6.196;2023-03-18T04:19:55;38.87;;;23.43;;
14040;SDS011;7095;51.388;6.196;2023-03-18T04:22:28;38.07;;;23.93;;
14040;SDS011;7095;51.388;6.196;2023-03-18T04:24:57;35.97;;;22.70;;
14040;SDS011;7095;51.388;6.196;2023-03-18T04:27:25;35.63;;;24.00;;
14040;SDS011;7095;51.388;6.196;2023-03-18T04:29:57;35.07;;;22.27;;
14040;SDS011;7095;51.388;6.196;2023-03-18T04:32:35;36.77;;;24.23;;
14040;SDS011;7095;51.388;6.196;2023-03-18T04:35:06;31.67;;;21.60;;
14040;SDS011;7095;51.388;6.196;2023-03-18T04:37:36;34.17;;;22.90;;
14040;SDS011;7095;51.388;6.196;2023-03-18T04:40:06;40.23;;;24.27;;
14040;SDS011;7095;51.388;6.196;2023-03-18T04:42:36;36.67;;;23.00;;
14040;SDS011;7095;51.388;6.196;2023-03-18T04:45:07;36.03;;;23.27;;
14040;SDS011;7095;51.388;6.196;2023-03-18T04:47:36;34.30;;;22.40;;
14040;SDS011;7095;51.388;6.196;2023-03-18T04:50:07;37.70;;;23.60;;
14040;SDS011;7095;51.388;6.196;2023-03-18T04:52:38;36.10;;;23.00;;
14040;SDS011;7095;51.388;6.196;2023-03-18T04:55:08;35.60;;;23.00;;
14040;SDS011;7095;51.388;6.196;2023-03-18T04:57:39;39.77;;;24.07;;
14040;SDS011;7095;51.388;6.196;2023-03-18T05:00:13;38.03;;;23.27;;
14040;SDS011;7095;51.388;6.196;2023-03-18T05:02:46;37.20;;;23.60;;
14040;SDS011;7095;51.388;6.196;2023-03-18T05:05:17;35.93;;;23.67;;
14040;SDS011;7095;51.388;6.196;2023-03-18T05:07:48;39.23;;;23.93;;
14040;SDS011;7095;51.388;6.196;2023-03-18T05:10:19;34.33;;;23.33;;
14040;SDS011;7095;51.388;6.196;2023-03-18T05:12:48;37.07;;;22.63;;
14040;SDS011;7095;51.388;6.196;2023-03-18T05:15:24;37.83;;;23.40;;
14040;SDS011;7095;51.388;6.196;2023-03-18T05:17:56;33.97;;;21.30;;
14040;SDS011;7095;51.388;6.196;2023-03-18T05:20:27;36.83;;;21.70;;
14040;SDS011;7095;51.388;6.196;2023-03-18T05:22:56;29.77;;;22.37;;
14040;SDS011;7095;51.388;6.196;2023-03-18T05:25:35;32.53;;;22.43;;
14040;SDS011;7095;51.388;6.196;2023-03-18T05:28:04;33.30;;;22.47;;
14040;SDS011;7095;51.388;6.196;2023-03-18T05:30:42;34.80;;;22.37;;
14040;SDS011;7095;51.388;6.196;2023-03-18T05:33:13;35.47;;;22.57;;
14040;SDS011;7095;51.388;6.196;2023-03-18T05:35:52;36.23;;;21.70;;
14040;SDS011;7095;51.388;6.196;2023-03-18T05:38:26;29.37;;;22.20;;
14040;SDS011;7095;51.388;6.196;2023-03-18T05:40:55;29.80;;;20.50;;
14040;SDS011;7095;51.388;6.196;2023-03-18T05:43:32;32.10;;;20.43;;
14040;SDS011;7095;51.388;6.196;2023-03-18T05:46:01;27.20;;;19.93;;
14040;SDS011;7095;51.388;6.196;2023-03-18T05:48:50;32.47;;;20.80;;
14040;SDS011;7095;51.388;6.196;2023-03-18T05:51:21;31.47;;;20.70;;
14040;SDS011;7095;51.388;6.196;2023-03-18T05:53:49;32.17;;;20.17;;
14040;SDS011;7095;51.388;6.196;2023-03-18T05:56:22;35.80;;;19.93;;
14040;SDS011;7095;51.388;6.196;2023-03-18T05:58:55;29.60;;;19.67;;
14040;SDS011;7095;51.388;6.196;2023-03-18T06:01:53;36.83;;;21.13;;
14040;SDS011;7095;51.388;6.196;2023-03-18T06:04:22;34.63;;;21.03;;
14040;SDS011;7095;51.388;6.196;2023-03-18T06:06:54;33.63;;;20.73;;
14040;SDS011;7095;51.388;6.196;2023-03-18T06:09:24;30.93;;;21.03;;
14040;SDS011;7095;51.388;6.196;2023-03-18T06:11:53;32.20;;;20.43;;
14040;SDS011;7095;51.388;6.196;2023-03-18T06:14:21;29.23;;;19.43;;
14040;SDS011;7095;51.388;6.196;2023-03-18T06:16:58;32.93;;;20.63;;
14040;SDS011;7095;51.388;6.196;2023-03-18T06:19:27;30.73;;;20.37;;
14040;SDS011;7095;51.388;6.196;2023-03-18T06:21:58;26.63;;;19.57;;
14040;SDS011;7095;51.388;6.196;2023-03-18T06:24:27;32.00;;;20.23;;
14040;SDS011;7095;51.388;6.196;2023-03-18T06:26:56;30.90;;;19.43;;
14040;SDS011;7095;51.388;6.196;2023-03-18T06:29:25;31.93;;;20.67;;
14040;SDS011;7095;51.388;6.196;2023-03-18T06:31:58;32.73;;;19.83;;
14040;SDS011;7095;51.388;6.196;2023-03-18T06:34:27;25.97;;;18.33;;
14040;SDS011;7095;51.388;6.196;2023-03-18T06:36:56;26.17;;;19.63;;
14040;SDS011;7095;51.388;6.196;2023-03-18T06:39:26;27.50;;;20.27;;
14040;SDS011;7095;51.388;6.196;2023-03-18T06:41:56;29.90;;;20.70;;
14040;SDS011;7095;51.388;6.196;2023-03-18T06:44:36;30.03;;;19.60;;
14040;SDS011;7095;51.388;6.196;2023-03-18T06:47:17;27.87;;;19.60;;
14040;SDS011;7095;51.388;6.196;2023-03-18T06:49:52;25.77;;;18.43;;
14040;SDS011;7095;51.388;6.196;2023-03-18T06:52:27;30.97;;;19.90;;
14040;SDS011;7095;51.388;6.196;2023-03-18T06:55:03;27.23;;;19.73;;
14040;SDS011;7095;51.388;6.196;2023-03-18T06:57:36;30.03;;;20.23;;
14040;SDS011;7095;51.388;6.196;2023-03-18T07:00:07;32.17;;;19.10;;
14040;SDS011;7095;51.388;6.196;2023-03-18T07:02:36;29.77;;;19.23;;
14040;SDS011;7095;51.388;6.196;2023-03-18T07:05:08;27.73;;;19.60;;
14040;SDS011;7095;51.388;6.196;2023-03-18T07:07:39;26.23;;;18.97;;
14040;SDS011;7095;51.388;6.196;2023-03-18T07:10:13;28.77;;;19.23;;
14040;SDS011;7095;51.388;6.196;2023-03-18T07:12:46;23.43;;;17.13;;
14040;SDS011;7095;51.388;6.196;2023-03-18T07:15:17;28.20;;;19.17;;
14040;SDS011;7095;51.388;6.196;2023-03-18T07:17:49;22.27;;;17.57;;
14040;SDS011;7095;51.388;6.196;2023-03-18T07:20:19;27.37;;;17.57;;
14040;SDS011;7095;51.388;6.196;2023-03-18T07:22:49;23.07;;;17.27;;
14040;SDS011;7095;51.388;6.196;2023-03-18T07:25:19;23.83;;;15.77;;
14040;SDS011;7095;51.388;6.196;2023-03-18T07:27:49;24.13;;;17.77;;
14040;SDS011;7095;51.388;6.196;2023-03-18T07:30:17;24.53;;;17.47;;
14040;SDS011;7095;51.388;6.196;2023-03-18T07:32:46;24.13;;;18.17;;
14040;SDS011;7095;51.388;6.196;2023-03-18T07:35:15;20.33;;;16.83;;
14040;SDS011;7095;51.388;6.196;2023-03-18T07:37:44;24.80;;;17.13;;
14040;SDS011;7095;51.388;6.196;2023-03-18T07:40:13;25.30;;;16.17;;
14040;SDS011;7095;51.388;6.196;2023-03-18T07:42:44;27.50;;;15.70;;
14040;SDS011;7095;51.388;6.196;2023-03-18T07:45:12;22.03;;;15.00;;
14040;SDS011;7095;51.388;6.196;2023-03-18T07:47:41;19.07;;;15.13;;
14040;SDS011;7095;51.388;6.196;2023-03-18T07:50:12;18.27;;;13.67;;
14040;SDS011;7095;51.388;6.196;2023-03-18T07:52:41;22.10;;;14.93;;
14040;SDS011;7095;51.388;6.196;2023-03-18T07:55:10;18.37;;;13.73;;
14040;SDS011;7095;51.388;6.196;2023-03-18T07:57:39;20.77;;;14.10;;
14040;SDS011;7095;51.388;6.196;2023-03-18T08:00:09;17.83;;;12.90;;
14040;SDS011;7095;51.388;6.196;2023-03-18T08:02:39;16.70;;;11.70;;
14040;SDS011;7095;51.388;6.196;2023-03-18T08:05:08;17.13;;;12.17;;
14040;SDS011;7095;51.388;6.196;2023-03-18T08:07:37;15.10;;;12.60;;
14040;SDS011;7095;51.388;6.196;2023-03-18T08:10:06;13.17;;;11.77;;
14040;SDS011;7095;51.388;6.196;2023-03-18T08:12:36;15.23;;;11.40;;
14040;SDS011;7095;51.388;6.196;2023-03-18T08:15:20;18.83;;;10.93;;
14040;SDS011;7095;51.388;6.196;2023-03-18T08:17:49;16.03;;;11.53;;
14040;SDS011;7095;51.388;6.196;2023-03-18T08:20:18;16.90;;;12.03;;
14040;SDS011;7095;51.388;6.196;2023-03-18T08:22:47;15.00;;;10.17;;
14040;SDS011;7095;51.388;6.196;2023-03-18T08:25:16;13.30;;;10.90;;
14040;SDS011;7095;51.388;6.196;2023-03-18T08:27:44;16.77;;;10.07;;
14040;SDS011;7095;51.388;6.196;2023-03-18T08:30:13;15.53;;;10.10;;
14040;SDS011;7095;51.388;6.196;2023-03-18T08:32:43;13.63;;;10.20;;
14040;SDS011;7095;51.388;6.196;2023-03-18T08:35:12;16.87;;;10.77;;
14040;SDS011;7095;51.388;6.196;2023-03-18T08:37:40;14.00;;;9.23;;
14040;SDS011;7095;51.388;6.196;2023-03-18T08:40:09;13.80;;;9.03;;
14040;SDS011;7095;51.388;6.196;2023-03-18T08:42:39;11.43;;;8.60;;
14040;SDS011;7095;51.388;6.196;2023-03-18T08:45:07;12.70;;;8.93;;
14040;SDS011;7095;51.388;6.196;2023-03-18T08:47:36;11.03;;;8.63;;
14040;SDS011;7095;51.388;6.196;2023-03-18T08:50:08;13.17;;;8.67;;
14040;SDS011;7095;51.388;6.196;2023-03-18T08:52:37;13.33;;;8.53;;
14040;SDS011;7095;51.388;6.196;2023-03-18T08:55:07;11.33;;;6.90;;
14040;SDS011;7095;51.388;6.196;2023-03-18T08:57:36;12.40;;;8.17;;
14040;SDS011;7095;51.388;6.196;2023-03-18T09:00:05;8.73;;;7.43;;
14040;SDS011;7095;51.388;6.196;2023-03-18T09:02:34;12.43;;;7.03;;
14040;SDS011;7095;51.388;6.196;2023-03-18T09:05:03;8.60;;;6.87;;
14040;SDS011;7095;51.388;6.196;2023-03-18T09:07:34;10.03;;;6.30;;
14040;SDS011;7095;51.388;6.196;2023-03-18T09:10:03;11.87;;;6.60;;
14040;SDS011;7095;51.388;6.196;2023-03-18T09:12:32;9.77;;;6.17;;
14040;SDS011;7095;51.388;6.196;2023-03-18T09:15:01;11.80;;;6.87;;
14040;SDS011;7095;51.388;6.196;2023-03-18T09:17:31;7.57;;;6.37;;
14040;SDS011;7095;51.388;6.196;2023-03-18T09:20:19;9.13;;;6.53;;
14040;SDS011;7095;51.388;6.196;2023-03-18T09:22:49;9.40;;;6.97;;
14040;SDS011;7095;51.388;6.196;2023-03-18T09:25:18;9.07;;;6.43;;
14040;SDS011;7095;51.388;6.196;2023-03-18T09:27:47;11.07;;;6.90;;
14040;SDS011;7095;51.388;6.196;2023-03-18T09:30:15;8.50;;;6.33;;
14040;SDS011;7095;51.388;6.196;2023-03-18T09:32:44;9.97;;;6.20;;
14040;SDS011;7095;51.388;6.196;2023-03-18T09:35:13;10.57;;;6.80;;
14040;SDS011;7095;51.388;6.196;2023-03-18T09:37:42;7.93;;;6.07;;
14040;SDS011;7095;51.388;6.196;2023-03-18T09:40:14;10.27;;;6.00;;
14040;SDS011;7095;51.388;6.196;2023-03-18T09:42:50;9.07;;;5.90;;
14040;SDS011;7095;51.388;6.196;2023-03-18T09:45:28;8.30;;;5.67;;
14040;SDS011;7095;51.388;6.196;2023-03-18T09:48:03;10.53;;;5.63;;
14040;SDS011;7095;51.388;6.196;2023-03-18T09:50:47;7.60;;;5.43;;
14040;SDS011;7095;51.388;6.196;2023-03-18T09:53:26;9.07;;;5.27;;
14040;SDS011;7095;51.388;6.196;2023-03-18T09:56:05;6.53;;;5.07;;
14040;SDS011;7095;51.388;6.196;2023-03-18T09:58:42;9.13;;;4.97;;
14040;SDS011;7095;51.388;6.196;2023-03-18T10:01:17;6.17;;;5.00;;
14040;SDS011;7095;51.388;6.196;2023-03-18T10:03:48;6.67;;;4.53;;
14040;SDS011;7095;51.388;6.196;2023-03-18T10:06:21;5.63;;;3.60;;
14040;SDS011;7095;51.388;6.196;2023-03-18T10:08:53;5.93;;;4.30;;
14040;SDS011;7095;51.388;6.196;2023-03-18T10:11:30;7.87;;;4.40;;
14040;SDS011;7095;51.388;6.196;2023-03-18T10:17:04;5.03;;;3.77;;
14040;SDS011;7095;51.388;6.196;2023-03-18T10:19:43;6.80;;;3.50;;
14040;SDS011;7095;51.388;6.196;2023-03-18T10:22:18;6.07;;;3.80;;
14040;SDS011;7095;51.388;6.196;2023-03-18T10:24:56;8.57;;;4.10;;
14040;SDS011;7095;51.388;6.196;2023-03-18T10:27:39;7.63;;;3.10;;
14040;SDS011;7095;51.388;6.196;2023-03-18T10:30:20;8.23;;;3.10;;
14040;SDS011;7095;51.388;6.196;2023-03-18T10:33:05;5.27;;;3.07;;
14040;SDS011;7095;51.388;6.196;2023-03-18T10:35:41;2.83;;;1.90;;
14040;SDS011;7095;51.388;6.196;2023-03-18T10:38:17;4.87;;;1.90;;
14040;SDS011;7095;51.388;6.196;2023-03-18T10:40:48;3.73;;;2.30;;
14040;SDS011;7095;51.388;6.196;2023-03-18T10:43:20;3.63;;;2.13;;
14040;SDS011;7095;51.388;6.196;2023-03-18T10:45:53;3.70;;;2.20;;
14040;SDS011;7095;51.388;6.196;2023-03-18T10:48:28;2.90;;;2.57;;
14040;SDS011;7095;51.388;6.196;2023-03-18T10:51:02;4.17;;;2.60;;
14040;SDS011;7095;51.388;6.196;2023-03-18T10:53:39;4.57;;;2.43;;
14040;SDS011;7095;51.388;6.196;2023-03-18T10:56:12;2.40;;;2.20;;
14040;SDS011;7095;51.388;6.196;2023-03-18T10:58:43;2.50;;;1.77;;
14040;SDS011;7095;51.388;6.196;2023-03-18T11:01:13;2.93;;;1.20;;
14040;SDS011;7095;51.388;6.196;2023-03-18T11:03:48;1.90;;;1.70;;
14040;SDS011;7095;51.388;6.196;2023-03-18T11:06:21;1.73;;;1.20;;
14040;SDS011;7095;51.388;6.196;2023-03-18T11:09:01;1.27;;;0.93;;
14040;SDS011;7095;51.388;6.196;2023-03-18T11:11:34;2.10;;;1.30;;
14040;SDS011;7095;51.388;6.196;2023-03-18T11:14:12;1.80;;;1.50;;
14040;SDS011;7095;51.388;6.196;2023-03-18T11:16:46;5.53;;;1.37;;
14040;SDS011;7095;51.388;6.196;2023-03-18T11:19:21;2.07;;;1.43;;
14040;SDS011;7095;51.388;6.196;2023-03-18T11:22:02;4.00;;;1.10;;
14040;SDS011;7095;51.388;6.196;2023-03-18T11:24:33;3.17;;;1.60;;
14040;SDS011;7095;51.388;6.196;2023-03-18T11:27:21;1.93;;;1.10;;
14040;SDS011;7095;51.388;6.196;2023-03-18T11:29:55;2.00;;;1.17;;
14040;SDS011;7095;51.388;6.196;2023-03-18T11:32:27;2.97;;;0.87;;
14040;SDS011;7095;51.388;6.196;2023-03-18T11:34:57;2.60;;;1.10;;
14040;SDS011;7095;51.388;6.196;2023-03-18T11:37:29;2.73;;;1.10;;
14040;SDS011;7095;51.388;6.196;2023-03-18T11:40:06;2.63;;;1.50;;
14040;SDS011;7095;51.388;6.196;2023-03-18T11:42:44;4.57;;;1.50;;
14040;SDS011;7095;51.388;6.196;2023-03-18T11:45:23;1.63;;;1.40;;
14040;SDS011;7095;51.388;6.196;2023-03-18T11:47:58;2.17;;;1.37;;
14040;SDS011;7095;51.388;6.196;2023-03-18T11:50:29;3.60;;;2.07;;
14040;SDS011;7095;51.388;6.196;2023-03-18T11:53:09;4.03;;;2.17;;
14040;SDS011;7095;51.388;6.196;2023-03-18T11:55:44;4.17;;;2.17;;
14040;SDS011;7095;51.388;6.196;2023-03-18T11:58:24;2.63;;;2.10;;
14040;SDS011;7095;51.388;6.196;2023-03-18T12:01:14;4.10;;;2.40;;
14040;SDS011;7095;51.388;6.196;2023-03-18T12:03:57;3.77;;;2.30;;
14040;SDS011;7095;51.388;6.196;2023-03-18T12:06:52;6.40;;;3.00;;
14040;SDS011;7095;51.388;6.196;2023-03-18T12:09:33;4.13;;;2.63;;
14040;SDS011;7095;51.388;6.196;2023-03-18T12:12:14;7.40;;;3.20;;
14040;SDS011;7095;51.388;6.196;2023-03-18T12:14:56;5.43;;;2.73;;
14040;SDS011;7095;51.388;6.196;2023-03-18T12:17:32;3.77;;;2.70;;
14040;SDS011;7095;51.388;6.196;2023-03-18T12:20:12;4.57;;;3.07;;
14040;SDS011;7095;51.388;6.196;2023-03-18T12:23:00;6.10;;;3.40;;
14040;SDS011;7095;51.388;6.196;2023-03-18T12:25:40;6.77;;;4.10;;
14040;SDS011;7095;51.388;6.196;2023-03-18T12:28:31;6.63;;;3.30;;
14040;SDS011;7095;51.388;6.196;2023-03-18T12:34:00;3.03;;;1.73;;
14040;SDS011;7095;51.388;6.196;2023-03-18T12:36:32;7.00;;;1.87;;
14040;SDS011;7095;51.388;6.196;2023-03-18T12:42:15;2.73;;;2.07;;
14040;SDS011;7095;51.388;6.196;2023-03-18T12:44:48;6.27;;;2.50;;
14040;SDS011;7095;51.388;6.196;2023-03-18T12:47:27;4.17;;;2.13;;
14040;SDS011;7095;51.388;6.196;2023-03-18T12:50:05;5.87;;;3.20;;
14040;SDS011;7095;51.388;6.196;2023-03-18T12:52:43;6.33;;;2.60;;
14040;SDS011;7095;51.388;6.196;2023-03-18T12:55:16;6.77;;;3.37;;
14040;SDS011;7095;51.388;6.196;2023-03-18T12:57:49;3.80;;;2.67;;
14040;SDS011;7095;51.388;6.196;2023-03-18T13:00:25;5.27;;;2.80;;
14040;SDS011;7095;51.388;6.196;2023-03-18T13:02:59;5.03;;;3.10;;
14040;SDS011;7095;51.388;6.196;2023-03-18T13:05:35;3.23;;;2.47;;
14040;SDS011;7095;51.388;6.196;2023-03-18T13:11:00;6.47;;;3.10;;
14040;SDS011;7095;51.388;6.196;2023-03-18T13:13:32;5.90;;;3.20;;
14040;SDS011;7095;51.388;6.196;2023-03-18T13:16:04;4.00;;;2.70;;
14040;SDS011;7095;51.388;6.196;2023-03-18T13:18:35;5.73;;;3.20;;
14040;SDS011;7095;51.388;6.196;2023-03-18T13:21:12;3.33;;;3.00;;
14040;SDS011;7095;51.388;6.196;2023-03-18T13:23:50;4.70;;;2.30;;
14040;SDS011;7095;51.388;6.196;2023-03-18T13:26:43;4.17;;;2.70;;
14040;SDS011;7095;51.388;6.196;2023-03-18T13:29:26;4.50;;;2.50;;
14040;SDS011;7095;51.388;6.196;2023-03-18T13:32:06;4.90;;;1.90;;
14040;SDS011;7095;51.388;6.196;2023-03-18T13:34:54;3.47;;;2.07;;
14040;SDS011;7095;51.388;6.196;2023-03-18T13:37:54;4.43;;;2.00;;
14040;SDS011;7095;51.388;6.196;2023-03-18T13:43:32;6.73;;;2.20;;
14040;SDS011;7095;51.388;6.196;2023-03-18T13:46:11;2.47;;;1.67;;
14040;SDS011;7095;51.388;6.196;2023-03-18T13:48:46;5.33;;;1.70;;
14040;SDS011;7095;51.388;6.196;2023-03-18T13:51:17;7.33;;;2.00;;
14040;SDS011;7095;51.388;6.196;2023-03-18T13:53:49;1.77;;;1.00;;
14040;SDS011;7095;51.388;6.196;2023-03-18T13:56:25;5.30;;;1.90;;
14040;SDS011;7095;51.388;6.196;2023-03-18T13:58:55;6.10;;;1.73;;
14040;SDS011;7095;51.388;6.196;2023-03-18T14:01:26;2.60;;;1.33;;
14040;SDS011;7095;51.388;6.196;2023-03-18T14:03:59;1.87;;;1.57;;
14040;SDS011;7095;51.388;6.196;2023-03-18T14:06:45;5.03;;;1.63;;
14040;SDS011;7095;51.388;6.196;2023-03-18T14:09:31;1.97;;;1.50;;
14040;SDS011;7095;51.388;6.196;2023-03-18T14:14:55;6.27;;;2.27;;
14040;SDS011;7095;51.388;6.196;2023-03-18T14:17:29;4.03;;;1.73;;
14040;SDS011;7095;51.388;6.196;2023-03-18T14:20:15;4.50;;;2.10;;
14040;SDS011;7095;51.388;6.196;2023-03-18T14:22:51;6.00;;;2.10;;
14040;SDS011;7095;51.388;6.196;2023-03-18T14:25:24;4.10;;;2.33;;
14040;SDS011;7095;51.388;6.196;2023-03-18T14:30:55;4.37;;;2.47;;
14040;SDS011;7095;51.388;6.196;2023-03-18T14:33:50;4.53;;;2.30;;
14040;SDS011;7095;51.388;6.196;2023-03-18T14:36:44;4.57;;;2.20;;
14040;SDS011;7095;51.388;6.196;2023-03-18T14:39:43;2.10;;;1.90;;
14040;SDS011;7095;51.388;6.196;2023-03-18T14:42:26;3.23;;;1.93;;
14040;SDS011;7095;51.388;6.196;2023-03-18T14:45:00;5.90;;;2.17;;
14040;SDS011;7095;51.388;6.196;2023-03-18T14:47:37;5.60;;;2.40;;
14040;SDS011;7095;51.388;6.196;2023-03-18T14:50:15;5.77;;;2.23;;
14040;SDS011;7095;51.388;6.196;2023-03-18T14:52:50;5.67;;;2.03;;
14040;SDS011;7095;51.388;6.196;2023-03-18T14:55:24;3.03;;;2.00;;
14040;SDS011;7095;51.388;6.196;2023-03-18T14:57:59;5.50;;;2.40;;
14040;SDS011;7095;51.388;6.196;2023-03-18T15:00:29;5.37;;;2.30;;
14040;SDS011;7095;51.388;6.196;2023-03-18T15:03:02;5.07;;;2.07;;
14040;SDS011;7095;51.388;6.196;2023-03-18T15:05:34;5.07;;;2.47;;
14040;SDS011;7095;51.388;6.196;2023-03-18T15:08:06;7.50;;;2.53;;
14040;SDS011;7095;51.388;6.196;2023-03-18T15:10:36;7.00;;;2.30;;
14040;SDS011;7095;51.388;6.196;2023-03-18T15:13:10;4.83;;;2.50;;
14040;SDS011;7095;51.388;6.196;2023-03-18T15:15:41;3.97;;;2.00;;
14040;SDS011;7095;51.388;6.196;2023-03-18T15:18:14;6.90;;;2.40;;
14040;SDS011;7095;51.388;6.196;2023-03-18T15:20:46;8.17;;;2.53;;
14040;SDS011;7095;51.388;6.196;2023-03-18T15:23:19;8.80;;;2.60;;
14040;SDS011;7095;51.388;6.196;2023-03-18T15:25:53;4.90;;;2.03;;
14040;SDS011;7095;51.388;6.196;2023-03-18T15:28:25;3.27;;;2.07;;
14040;SDS011;7095;51.388;6.196;2023-03-18T15:30:56;4.73;;;2.00;;
14040;SDS011;7095;51.388;6.196;2023-03-18T15:33:28;4.50;;;2.00;;
14040;SDS011;7095;51.388;6.196;2023-03-18T15:36:01;4.97;;;2.17;;
14040;SDS011;7095;51.388;6.196;2023-03-18T15:38:32;5.70;;;2.20;;
14040;SDS011;7095;51.388;6.196;2023-03-18T15:41:01;9.20;;;2.33;;
14040;SDS011;7095;51.388;6.196;2023-03-18T15:43:37;3.73;;;2.00;;